Terminal Aerodrome Forecast
Issued by NWS North Platte, NE

Home | Current Version | Previous Version | Text Only | Print | Product List | Glossary On
Versions: 1 2 3 4 5 6 7 8 9 10 11 12
000
FTUS43 KLBF 120528
TAFLBF
TAF
KLBF 120528Z 1206/1306 33004KT P6SM FEW250
     FM121600 27005KT P6SM SKC
     FM121900 27009KT P6SM FEW250
     FM130000 26005KT P6SM FEW250=

USA.gov is the U.S. government's official web portal to all federal, state and local government web resources and services.